This is the latest recevied weather packets stored in our database for station/object FW9167. If no packets are shown the sender has not sent any weather packets the latest 10 day(s).
| Time | Temp. | Humidity | Pressure | Rain* | Wind** | Luminosity | Snow |
|---|---|---|---|---|---|---|---|
| 1777861865 | 18.89° C | 47% | 1009.6 hPa | 0 mm | - | - | - |
| 1777860062 | 21.67° C | 44% | 1009.6 hPa | 0 mm | - | - | - |
| 1777856462 | 25.56° C | 38% | 1009.9 hPa | 0 mm | - | - | - |
| 1777833063 | 21.67° C | 49% | 1015 hPa | 0 mm | - | - | - |
| 1777828562 | 19.44° C | 49% | 1015.6 hPa | 0 mm | - | - | - |
| 1777824962 | 16.67° C | 53% | 1016 hPa | 0 mm | - | - | - |
| 1777819562 | 13.33° C | 59% | 1016.7 hPa | 0 mm | - | - | - |
| 1777818662 | 11.67° C | 65% | 1016.7 hPa | 0 mm | - | - | - |
| 1777808766 | 6.11° C | 74% | 1016.2 hPa | 0 mm | - | - | - |
| 1777800667 | 9.44° C | 64% | 1015.9 hPa | 0 mm | - | - | - |
| 1777795261 | 11.11° C | 59% | 1015.8 hPa | 0 mm | - | - | - |
| 1777793462 | 11.67° C | 57% | 1015.8 hPa | 0 mm | - | - | - |
| 1777792565 | 11.67° C | 57% | 1015.8 hPa | 0 mm | - | - | - |
| 1777789862 | 13.33° C | 52% | 1015.7 hPa | 0 mm | - | - | - |
| 1777786262 | 12.22° C | 55% | 1015.4 hPa | 0 mm | - | - | - |
| 1777785362 | 13.89° C | 51% | 1015.3 hPa | 0 mm | - | - | - |
| 1777779962 | 17.22° C | 40% | 1014.7 hPa | 0 mm | - | - | - |
| 1777768267 | 25.56° C | 35% | 1014.2 hPa | 0 mm | - | - | - |
| 1777751163 | 23.89° C | 29% | 1016.9 hPa | 0 mm | - | - | - |
| 1777748467 | 22.22° C | 34% | 1017.3 hPa | 0 mm | - | - | - |
| 1777747562 | 22.22° C | 39% | 1017.5 hPa | 0 mm | - | - | - |
| 1777742163 | 18.33° C | 51% | 1018 hPa | 0 mm | - | - | - |
| 1777741263 | 17.78° C | 52% | 1018.1 hPa | 0 mm | - | - | - |
| 1777739462 | 16.67° C | 56% | 1018.1 hPa | 0 mm | - | - | - |
| 1777718762 | 5.56° C | 81% | 1018.3 hPa | 0 mm | - | - | - |
* Rain since midnight (hover to see other rain measurements)
** Current wind speed in m/s (hover to see current wind gust speed)